createdAt,value
2023-04-06T00:01:03.273Z,-1.00
2023-04-06T00:03:30.549Z,-1.00
2023-04-06T00:05:57.658Z,-1.00
2023-04-06T00:08:24.794Z,-0.90
2023-04-06T00:10:51.972Z,-0.80
2023-04-06T00:13:19.229Z,-0.70
2023-04-06T00:15:46.227Z,-0.70
2023-04-06T00:18:13.543Z,-0.60
2023-04-06T00:20:40.626Z,-0.60
2023-04-06T00:23:07.722Z,-0.60
2023-04-06T00:25:34.680Z,-0.60
2023-04-06T00:28:01.710Z,-0.70
2023-04-06T00:30:28.720Z,-0.60
2023-04-06T00:32:55.906Z,-0.60
2023-04-06T00:35:22.870Z,-0.70
2023-04-06T00:37:49.908Z,-0.70
2023-04-06T00:40:17.259Z,-0.70
2023-04-06T00:42:44.833Z,-0.80
2023-04-06T00:45:11.969Z,-0.80
2023-04-06T00:47:39.216Z,-0.90
2023-04-06T00:50:06.815Z,-0.80
2023-04-06T00:52:35.700Z,-0.80
2023-04-06T00:55:03.643Z,-0.90
2023-04-06T00:57:30.845Z,-0.90
2023-04-06T00:59:57.857Z,-1.00
2023-04-06T01:02:26.736Z,-1.00
2023-04-06T01:04:55.392Z,-1.00
2023-04-06T01:07:22.548Z,-1.00
2023-04-06T01:09:49.515Z,-1.10
2023-04-06T01:12:16.524Z,-1.00
2023-04-06T01:14:43.650Z,-1.00
2023-04-06T01:17:10.861Z,-1.00
2023-04-06T01:19:38.091Z,-0.90
2023-04-06T01:22:06.007Z,-0.90
2023-04-06T01:24:33.297Z,-0.90
2023-04-06T01:27:00.339Z,-0.90
2023-04-06T01:29:27.861Z,-1.10
2023-04-06T01:31:55.401Z,-1.20
2023-04-06T01:34:25.205Z,-1.30
2023-04-06T01:36:52.155Z,-1.40
2023-04-06T01:39:20.087Z,-1.40
2023-04-06T01:41:48.355Z,-1.50
2023-04-06T01:44:19.471Z,-1.60
2023-04-06T01:46:47.055Z,-1.50
2023-04-06T01:49:14.243Z,-1.50
2023-04-06T01:51:41.295Z,-1.40
2023-04-06T01:54:08.399Z,-1.40
2023-04-06T01:56:35.822Z,-1.50
2023-04-06T01:59:03.354Z,-1.50
2023-04-06T02:01:30.514Z,-1.50
2023-04-06T02:03:57.565Z,-1.50
2023-04-06T02:06:24.615Z,-1.50
2023-04-06T02:08:51.519Z,-1.50
2023-04-06T02:11:18.657Z,-1.50
2023-04-06T02:13:45.604Z,-1.60
2023-04-06T02:16:12.550Z,-1.60
2023-04-06T02:18:39.523Z,-1.60
2023-04-06T02:21:06.547Z,-1.80
2023-04-06T02:23:33.779Z,-1.90
2023-04-06T02:26:00.936Z,-1.90
2023-04-06T02:28:27.906Z,-1.80
2023-04-06T02:30:54.993Z,-1.90
2023-04-06T02:33:21.940Z,-1.90
2023-04-06T02:35:48.888Z,-1.90
2023-04-06T02:38:16.161Z,-1.90
2023-04-06T02:40:43.108Z,-1.80
2023-04-06T02:43:10.009Z,-1.80
2023-04-06T02:45:37.071Z,-1.80
2023-04-06T02:48:04.279Z,-2.00
2023-04-06T02:50:31.395Z,-2.10
2023-04-06T02:52:58.291Z,-2.10
2023-04-06T02:55:25.458Z,-2.10
2023-04-06T02:57:52.372Z,-2.00
2023-04-06T03:00:19.975Z,-2.10
2023-04-06T03:02:48.513Z,-2.00
2023-04-06T03:05:15.752Z,-2.00
2023-04-06T03:07:42.871Z,-2.00
2023-04-06T03:10:10.890Z,-2.00
2023-04-06T03:12:38.047Z,-2.00
2023-04-06T03:15:05.756Z,-2.10
2023-04-06T03:17:32.823Z,-2.20
2023-04-06T03:20:00.063Z,-2.20
2023-04-06T03:22:27.297Z,-2.10
2023-04-06T03:24:56.498Z,-2.10
2023-04-06T03:27:23.725Z,-2.20
2023-04-06T03:29:50.897Z,-2.30
2023-04-06T03:32:18.148Z,-2.30
2023-04-06T03:34:45.092Z,-2.40
2023-04-06T03:37:12.139Z,-2.30
2023-04-06T03:39:39.095Z,-2.40
2023-04-06T03:42:06.250Z,-2.40
2023-04-06T03:44:33.154Z,-2.40
2023-04-06T03:47:00.538Z,-2.50
2023-04-06T03:49:27.619Z,-2.40
2023-04-06T03:51:54.990Z,-2.40
2023-04-06T03:54:21.942Z,-2.40
2023-04-06T03:56:49.014Z,-2.40
2023-04-06T03:59:16.332Z,-2.50
2023-04-06T04:01:43.565Z,-2.50
2023-04-06T04:04:11.139Z,-2.50
2023-04-06T04:06:38.154Z,-2.60
2023-04-06T04:09:05.281Z,-2.60
2023-04-06T04:11:32.273Z,-2.60
2023-04-06T04:13:59.253Z,-2.70
2023-04-06T04:16:26.430Z,-2.70
2023-04-06T04:18:53.440Z,-2.70
2023-04-06T04:21:20.793Z,-2.60
2023-04-06T04:23:47.889Z,-2.60
2023-04-06T04:26:14.925Z,-2.70
2023-04-06T04:28:41.833Z,-2.80
2023-04-06T04:31:09.281Z,-2.80
2023-04-06T04:33:36.441Z,-2.80
2023-04-06T04:36:03.881Z,-2.90
2023-04-06T04:38:34.128Z,-2.90
2023-04-06T04:41:01.687Z,-2.90
2023-04-06T04:43:29.792Z,-2.80
2023-04-06T04:45:57.837Z,-2.80
2023-04-06T04:48:24.774Z,-2.70
2023-04-06T04:50:51.881Z,-2.70
2023-04-06T04:53:18.804Z,-2.80
2023-04-06T04:55:46.144Z,-2.80
2023-04-06T04:58:17.556Z,-2.80
2023-04-06T05:00:45.099Z,-2.90
2023-04-06T05:03:19.962Z,-2.90
2023-04-06T05:05:46.955Z,-2.80
2023-04-06T05:08:14.191Z,-2.70
2023-04-06T05:10:55.937Z,-2.70
2023-04-06T05:13:23.493Z,-2.70
2023-04-06T05:15:50.768Z,-2.70
2023-04-06T05:18:17.863Z,-2.80
2023-04-06T05:20:44.815Z,-2.70
2023-04-06T05:23:12.217Z,-2.70
2023-04-06T05:25:39.188Z,-2.60
2023-04-06T05:28:06.545Z,-2.50
2023-04-06T05:30:33.574Z,-2.50
2023-04-06T05:33:00.709Z,-2.50
2023-04-06T05:35:27.684Z,-2.50
2023-04-06T05:37:54.774Z,-2.40
2023-04-06T05:40:21.892Z,-2.30
2023-04-06T05:42:50.578Z,-2.20
2023-04-06T05:45:21.675Z,-2.10
2023-04-06T05:47:48.737Z,-2.00
2023-04-06T05:50:16.788Z,-1.50
2023-04-06T05:52:46.281Z,0.70
2023-04-06T05:55:13.496Z,3.60
2023-04-06T05:57:40.603Z,6.00
2023-04-06T06:00:10.987Z,7.80
2023-04-06T06:02:38.100Z,9.50
2023-04-06T06:05:05.489Z,10.90
2023-04-06T06:07:32.572Z,12.10
2023-04-06T06:09:59.901Z,13.20
2023-04-06T06:12:26.945Z,14.00
2023-04-06T06:14:54.257Z,14.40
2023-04-06T06:17:21.364Z,15.00
2023-04-06T06:19:48.858Z,15.40
2023-04-06T06:22:17.125Z,15.50
2023-04-06T06:24:44.307Z,15.80
2023-04-06T06:27:11.251Z,16.10
2023-04-06T06:29:38.194Z,16.60
2023-04-06T06:32:05.535Z,17.00
2023-04-06T06:34:32.539Z,17.60
2023-04-06T06:36:59.533Z,18.00
2023-04-06T06:39:26.557Z,17.90
2023-04-06T06:41:53.736Z,18.20
2023-04-06T06:44:20.735Z,18.40
2023-04-06T06:46:47.654Z,18.20
2023-04-06T06:49:15.439Z,18.00
2023-04-06T06:51:42.354Z,18.10
2023-04-06T06:54:09.706Z,18.20
2023-04-06T06:56:39.163Z,18.30
2023-04-06T06:59:09.871Z,18.40
2023-04-06T07:01:38.120Z,18.60
2023-04-06T07:04:05.718Z,19.20
2023-04-06T07:06:32.783Z,19.70
2023-04-06T07:08:59.829Z,20.20
2023-04-06T07:11:27.276Z,20.40
2023-04-06T07:13:54.282Z,20.00
2023-04-06T07:16:21.274Z,19.80
2023-04-06T07:18:48.334Z,19.50
2023-04-06T07:21:15.252Z,19.30
2023-04-06T07:23:42.731Z,19.60
2023-04-06T07:26:09.696Z,19.40
2023-04-06T07:28:36.651Z,19.10
2023-04-06T07:31:03.626Z,18.50
2023-04-06T07:33:31.092Z,17.90
2023-04-06T07:35:59.554Z,17.80
2023-04-06T07:38:26.693Z,18.10
2023-04-06T07:40:54.378Z,18.10
2023-04-06T07:43:21.433Z,18.10
2023-04-06T07:45:48.516Z,18.20
2023-04-06T07:48:15.478Z,18.10
2023-04-06T07:50:42.416Z,17.00
2023-04-06T07:53:10.355Z,16.40
2023-04-06T07:55:37.434Z,15.60
2023-04-06T07:58:04.348Z,15.30
2023-04-06T08:00:31.729Z,15.00
2023-04-06T08:02:58.846Z,14.50
2023-04-06T08:05:26.038Z,13.40
2023-04-06T08:07:52.960Z,12.80
2023-04-06T08:10:20.041Z,12.30
2023-04-06T08:12:46.977Z,11.70
2023-04-06T08:15:13.984Z,11.70
2023-04-06T08:17:40.967Z,11.80
2023-04-06T08:20:08.184Z,12.20
2023-04-06T08:22:35.122Z,12.00
2023-04-06T08:25:02.106Z,11.70
2023-04-06T08:27:29.155Z,11.40
2023-04-06T08:29:56.127Z,11.50
2023-04-06T08:32:23.120Z,11.70
2023-04-06T08:34:50.116Z,12.30
2023-04-06T08:37:17.111Z,12.80
2023-04-06T08:39:44.100Z,13.00
2023-04-06T08:42:40.407Z,12.90
2023-04-06T08:45:08.052Z,13.00
2023-04-06T08:47:36.135Z,12.60
2023-04-06T08:50:05.709Z,12.80
2023-04-06T08:52:34.983Z,13.20
2023-04-06T08:55:02.463Z,13.10
2023-04-06T08:57:30.056Z,13.10
2023-04-06T08:59:58.112Z,13.30
2023-04-06T09:02:25.919Z,13.00
2023-04-06T09:04:55.072Z,13.20
2023-04-06T09:07:22.951Z,13.20
2023-04-06T09:09:50.220Z,13.30
2023-04-06T09:12:28.331Z,13.40
2023-04-06T09:14:57.189Z,12.90
2023-04-06T09:17:29.300Z,12.80
2023-04-06T09:19:57.012Z,13.30
2023-04-06T09:22:25.846Z,13.60
2023-04-06T09:24:54.769Z,13.60
2023-04-06T09:27:38.319Z,13.60
2023-04-06T09:30:06.596Z,13.60
2023-04-06T09:32:33.772Z,13.50
2023-04-06T09:35:10.432Z,13.50
2023-04-06T09:37:37.835Z,13.70
2023-04-06T09:40:07.037Z,14.00
2023-04-06T09:42:35.298Z,14.10
2023-04-06T09:45:05.594Z,14.30
2023-04-06T09:47:34.254Z,14.60
2023-04-06T09:50:01.905Z,14.70
2023-04-06T09:52:47.259Z,14.70
2023-04-06T09:55:39.733Z,14.60
2023-04-06T09:58:08.361Z,14.70
2023-04-06T10:00:48.790Z,15.00
2023-04-06T10:03:38.802Z,15.30
2023-04-06T10:06:11.492Z,14.70
2023-04-06T10:08:42.529Z,14.00
2023-04-06T10:11:11.940Z,14.30
2023-04-06T10:13:39.059Z,14.40
2023-04-06T10:16:07.368Z,14.60
2023-04-06T10:18:34.716Z,14.70
2023-04-06T10:21:10.045Z,15.30
2023-04-06T10:23:42.949Z,15.90
2023-04-06T10:26:15.298Z,16.50
2023-04-06T10:28:44.112Z,16.70
2023-04-06T10:31:11.511Z,16.60
2023-04-06T10:33:39.766Z,16.70
2023-04-06T10:36:23.603Z,16.50
2023-04-06T10:38:56.911Z,16.50
2023-04-06T10:41:23.949Z,16.40
2023-04-06T10:43:58.480Z,16.20
2023-04-06T10:46:34.513Z,15.80
2023-04-06T10:49:15.361Z,15.50
2023-04-06T10:51:42.942Z,15.20
2023-04-06T10:54:12.482Z,14.70
2023-04-06T10:56:40.159Z,14.30
2023-04-06T10:59:08.521Z,14.40
2023-04-06T11:01:35.765Z,14.50
2023-04-06T11:04:03.649Z,14.80
2023-04-06T11:06:34.824Z,15.40
2023-04-06T11:09:02.137Z,16.10
2023-04-06T11:11:29.520Z,16.70
2023-04-06T11:13:59.449Z,16.40
2023-04-06T11:16:27.756Z,16.60
2023-04-06T11:18:57.476Z,16.70
2023-04-06T11:21:41.169Z,17.00
2023-04-06T11:24:21.394Z,17.00
2023-04-06T11:26:51.989Z,16.20
2023-04-06T11:29:23.734Z,16.10
2023-04-06T11:31:52.608Z,16.00
2023-04-06T11:34:22.154Z,16.00
2023-04-06T11:36:55.549Z,15.60
2023-04-06T11:39:25.089Z,15.00
2023-04-06T11:41:54.285Z,14.40
2023-04-06T11:44:47.235Z,14.50
2023-04-06T11:47:14.621Z,14.90
2023-04-06T11:49:46.394Z,14.90
2023-04-06T11:52:20.252Z,14.70
2023-04-06T11:54:48.609Z,14.70
2023-04-06T11:57:17.949Z,14.40
2023-04-06T11:59:45.358Z,14.00
2023-04-06T12:02:12.332Z,13.60
2023-04-06T12:04:40.101Z,13.30
2023-04-06T12:07:07.173Z,13.00
2023-04-06T12:09:35.752Z,12.80
2023-04-06T12:12:03.305Z,12.70
2023-04-06T12:14:31.754Z,13.10
2023-04-06T12:16:59.538Z,14.10
2023-04-06T12:19:27.101Z,15.00
2023-04-06T12:21:58.661Z,15.60
2023-04-06T12:24:25.995Z,15.40
2023-04-06T12:26:59.511Z,15.30
2023-04-06T12:29:33.852Z,15.00
2023-04-06T12:32:02.819Z,14.50
2023-04-06T12:34:30.029Z,14.10
2023-04-06T12:36:57.374Z,14.00
2023-04-06T12:39:24.902Z,14.70
2023-04-06T12:41:51.878Z,15.50
2023-04-06T12:44:19.081Z,16.00
2023-04-06T12:46:46.575Z,16.60
2023-04-06T12:49:14.079Z,17.10
2023-04-06T12:51:41.315Z,17.40
2023-04-06T12:54:08.349Z,17.20
2023-04-06T12:56:36.241Z,16.70
2023-04-06T12:59:03.289Z,16.30
2023-04-06T13:01:30.433Z,16.60
2023-04-06T13:03:58.912Z,17.10
2023-04-06T13:06:28.784Z,17.50
2023-04-06T13:08:56.623Z,17.90
2023-04-06T13:11:26.909Z,18.10
2023-04-06T13:13:55.111Z,17.70
2023-04-06T13:16:22.286Z,17.20
2023-04-06T13:18:49.280Z,17.10
2023-04-06T13:21:17.568Z,17.20
2023-04-06T13:23:45.272Z,17.20
2023-04-06T13:26:14.696Z,17.30
2023-04-06T13:28:42.550Z,17.20
2023-04-06T13:31:10.923Z,17.10
2023-04-06T13:33:38.664Z,17.00
2023-04-06T13:36:08.203Z,16.60
2023-04-06T13:38:35.557Z,16.50
2023-04-06T13:41:02.843Z,16.40
2023-04-06T13:43:29.859Z,16.50
2023-04-06T13:45:59.584Z,16.50
2023-04-06T13:48:27.359Z,16.40
2023-04-06T13:50:54.947Z,15.90
2023-04-06T13:53:21.950Z,15.80
2023-04-06T13:55:56.352Z,15.60
2023-04-06T13:58:23.984Z,15.70
2023-04-06T14:00:51.961Z,15.80
2023-04-06T14:03:19.443Z,16.10
2023-04-06T14:05:47.021Z,16.40
2023-04-06T14:08:14.334Z,16.30
2023-04-06T14:10:43.263Z,16.40
2023-04-06T14:13:10.658Z,16.20
2023-04-06T14:15:37.974Z,16.10
2023-04-06T14:18:05.102Z,16.30
2023-04-06T14:20:35.536Z,16.50
2023-04-06T14:23:03.212Z,16.60
2023-04-06T14:25:32.526Z,16.80
2023-04-06T14:27:59.598Z,16.90
2023-04-06T14:30:26.656Z,16.90
2023-04-06T14:32:53.832Z,16.80
2023-04-06T14:35:20.950Z,16.70
2023-04-06T14:37:48.340Z,16.70
2023-04-06T14:40:15.441Z,16.70
2023-04-06T14:42:42.555Z,16.60
2023-04-06T14:45:09.821Z,16.40
2023-04-06T14:47:36.945Z,16.10
2023-04-06T14:50:04.325Z,16.00
2023-04-06T14:52:32.891Z,15.90
2023-04-06T14:55:00.081Z,15.80
2023-04-06T14:57:27.001Z,15.90
2023-04-06T14:59:57.115Z,15.70
2023-04-06T15:02:24.589Z,15.40
2023-04-06T15:04:53.283Z,15.10
2023-04-06T15:07:20.998Z,14.90
2023-04-06T15:09:47.942Z,14.60
2023-04-06T15:12:15.154Z,14.60
2023-04-06T15:14:42.244Z,14.60
2023-04-06T15:17:09.458Z,14.60
2023-04-06T15:19:36.665Z,14.50
2023-04-06T15:22:03.604Z,14.30
2023-04-06T15:24:30.562Z,13.60
2023-04-06T15:26:57.982Z,13.40
2023-04-06T15:29:26.379Z,13.20
2023-04-06T15:31:53.449Z,13.10
2023-04-06T15:34:20.459Z,12.90
2023-04-06T15:36:47.635Z,12.70
2023-04-06T15:39:14.794Z,12.70
2023-04-06T15:41:42.184Z,12.70
2023-04-06T15:44:09.242Z,12.70
2023-04-06T15:46:36.719Z,12.70
2023-04-06T15:49:04.119Z,12.70
2023-04-06T15:51:31.623Z,12.90
2023-04-06T15:53:58.875Z,12.80
2023-04-06T15:56:26.062Z,12.90
2023-04-06T15:58:53.276Z,12.90
2023-04-06T16:01:20.630Z,13.10
2023-04-06T16:03:48.089Z,13.20
2023-04-06T16:06:15.591Z,13.20
2023-04-06T16:08:42.738Z,13.20
2023-04-06T16:11:10.433Z,13.10
2023-04-06T16:13:37.529Z,13.10
2023-04-06T16:16:06.067Z,13.00
2023-04-06T16:18:35.801Z,12.90
2023-04-06T16:21:04.360Z,12.80
2023-04-06T16:23:31.454Z,12.70
2023-04-06T16:25:58.524Z,12.70
2023-04-06T16:28:25.877Z,12.50
2023-04-06T16:30:53.210Z,12.40
2023-04-06T16:33:21.107Z,12.20
2023-04-06T16:35:49.282Z,12.00
2023-04-06T16:38:17.307Z,11.80
2023-04-06T16:40:44.304Z,11.60
2023-04-06T16:43:11.686Z,11.50
2023-04-06T16:45:38.811Z,11.30
2023-04-06T16:48:06.742Z,11.20
2023-04-06T16:50:36.117Z,11.10
2023-04-06T16:53:03.191Z,11.00
2023-04-06T16:55:30.163Z,10.90
2023-04-06T16:57:57.150Z,10.80
2023-04-06T17:00:24.346Z,10.70
2023-04-06T17:02:51.579Z,10.50
2023-04-06T17:05:24.899Z,10.30
2023-04-06T17:07:52.121Z,10.20
2023-04-06T17:10:24.270Z,10.00
2023-04-06T17:13:00.938Z,9.80
2023-04-06T17:15:29.790Z,9.70
2023-04-06T17:17:57.836Z,9.60
2023-04-06T17:20:25.145Z,9.50
2023-04-06T17:22:52.321Z,9.40
2023-04-06T17:25:19.564Z,9.30
2023-04-06T17:27:46.841Z,9.30
2023-04-06T17:30:16.887Z,9.20
2023-04-06T17:32:45.343Z,8.90
2023-04-06T17:35:12.580Z,8.70
2023-04-06T17:37:40.543Z,8.50
2023-04-06T17:40:08.193Z,8.40
2023-04-06T17:42:35.258Z,8.30
2023-04-06T17:45:02.558Z,8.30
2023-04-06T17:47:32.549Z,8.20
2023-04-06T17:50:00.854Z,8.10
2023-04-06T17:52:28.990Z,8.20
2023-04-06T17:54:56.635Z,8.10
2023-04-06T17:57:24.098Z,8.00
2023-04-06T17:59:51.156Z,7.90
2023-04-06T18:02:20.165Z,7.80
2023-04-06T18:04:47.887Z,7.70
2023-04-06T18:07:15.107Z,7.60
2023-04-06T18:09:42.105Z,7.70
2023-04-06T18:12:09.339Z,7.70
2023-04-06T18:14:36.741Z,7.70
2023-04-06T18:17:03.697Z,7.70
2023-04-06T18:19:32.387Z,7.80
2023-04-06T18:21:59.541Z,7.80
2023-04-06T18:24:41.572Z,7.80
2023-04-06T18:27:11.078Z,7.70
2023-04-06T18:29:38.035Z,7.60
2023-04-06T18:32:06.673Z,7.60
2023-04-06T18:34:34.239Z,7.60
2023-04-06T18:37:01.837Z,7.50
2023-04-06T18:39:29.259Z,7.40
2023-04-06T18:41:56.752Z,7.30
2023-04-06T18:44:23.691Z,7.20
2023-04-06T18:46:53.418Z,7.20
2023-04-06T18:49:21.578Z,7.20
2023-04-06T18:51:49.729Z,7.10
2023-04-06T18:54:24.825Z,7.10
2023-04-06T18:56:52.919Z,7.10
2023-04-06T18:59:22.271Z,7.00
2023-04-06T19:01:54.261Z,7.10
2023-04-06T19:04:21.693Z,7.10
2023-04-06T19:06:48.839Z,7.00
2023-04-06T19:09:15.863Z,6.90
2023-04-06T19:11:42.812Z,6.80
2023-04-06T19:14:09.859Z,6.70
2023-04-06T19:16:42.119Z,6.70
2023-04-06T19:19:09.823Z,6.80
2023-04-06T19:21:37.464Z,6.80
2023-04-06T19:24:04.658Z,6.90
2023-04-06T19:26:32.860Z,6.90
2023-04-06T19:28:59.869Z,6.80
2023-04-06T19:31:28.128Z,6.80
2023-04-06T19:33:55.374Z,6.80
2023-04-06T19:36:22.525Z,6.80
2023-04-06T19:38:49.461Z,6.70
2023-04-06T19:41:16.486Z,6.60
2023-04-06T19:43:46.629Z,6.70
2023-04-06T19:46:15.557Z,6.60
2023-04-06T19:48:43.348Z,6.60
2023-04-06T19:51:10.532Z,6.50
2023-04-06T19:53:37.837Z,6.40
2023-04-06T19:56:04.978Z,6.30
2023-04-06T19:58:32.188Z,6.30
2023-04-06T20:00:59.444Z,6.20
2023-04-06T20:03:26.547Z,6.20
2023-04-06T20:05:53.621Z,6.10
2023-04-06T20:08:20.797Z,6.10
2023-04-06T20:10:47.718Z,6.00
2023-04-06T20:13:14.884Z,6.00
2023-04-06T20:15:43.287Z,6.00
2023-04-06T20:18:10.669Z,6.00
2023-04-06T20:20:37.621Z,5.90
2023-04-06T20:23:04.749Z,5.90
2023-04-06T20:25:31.873Z,5.90
2023-04-06T20:27:59.173Z,5.80
2023-04-06T20:30:27.248Z,5.80
2023-04-06T20:32:54.415Z,5.80
2023-04-06T20:35:21.393Z,5.80
2023-04-06T20:37:48.526Z,5.70
2023-04-06T20:40:15.647Z,5.60
2023-04-06T20:42:42.696Z,5.50
2023-04-06T20:45:10.157Z,5.40
2023-04-06T20:47:37.130Z,5.30
2023-04-06T20:50:04.458Z,5.30
2023-04-06T20:52:31.504Z,5.30
2023-04-06T20:54:58.513Z,5.30
2023-04-06T20:57:25.834Z,5.30
2023-04-06T20:59:52.843Z,5.20
2023-04-06T21:02:20.068Z,5.20
2023-04-06T21:04:47.198Z,5.20
2023-04-06T21:07:17.198Z,5.20
2023-04-06T21:09:44.259Z,5.20
2023-04-06T21:12:11.177Z,5.30
2023-04-06T21:14:38.217Z,5.30
2023-04-06T21:17:05.214Z,5.30
2023-04-06T21:19:32.188Z,5.40
2023-04-06T21:21:59.224Z,5.30
2023-04-06T21:24:26.342Z,5.30
2023-04-06T21:26:53.320Z,5.30
2023-04-06T21:29:20.460Z,5.30
2023-04-06T21:31:47.419Z,5.20
2023-04-06T21:34:15.033Z,5.20
2023-04-06T21:36:42.398Z,5.10
2023-04-06T21:39:10.415Z,5.10
2023-04-06T21:41:37.682Z,5.10
2023-04-06T21:44:04.654Z,5.10
2023-04-06T21:46:32.449Z,5.20
2023-04-06T21:49:00.265Z,5.30
2023-04-06T21:51:27.188Z,5.40
2023-04-06T21:53:56.510Z,5.50
2023-04-06T21:56:25.032Z,5.40
2023-04-06T21:58:52.900Z,5.40
2023-04-06T22:01:20.944Z,5.30
2023-04-06T22:03:48.218Z,5.20
2023-04-06T22:06:15.297Z,5.10
2023-04-06T22:08:42.805Z,5.20
2023-04-06T22:11:11.712Z,5.10
2023-04-06T22:13:39.377Z,5.10
2023-04-06T22:16:07.156Z,5.10
2023-04-06T22:18:37.280Z,5.00
2023-04-06T22:21:06.023Z,4.80
2023-04-06T22:23:33.236Z,4.60
2023-04-06T22:26:00.594Z,4.50
2023-04-06T22:28:27.623Z,4.50
2023-04-06T22:30:54.676Z,4.40
2023-04-06T22:33:21.716Z,4.40
2023-04-06T22:35:48.970Z,4.50
2023-04-06T22:38:16.055Z,4.50
2023-04-06T22:40:43.109Z,4.50
2023-04-06T22:43:10.246Z,4.50
2023-04-06T22:45:37.275Z,4.60
2023-04-06T22:48:04.299Z,4.50
2023-04-06T22:50:31.753Z,4.50
2023-04-06T22:52:58.960Z,4.40
2023-04-06T22:55:26.199Z,4.50
2023-04-06T22:57:53.252Z,4.50
2023-04-06T23:00:20.300Z,4.50
2023-04-06T23:02:47.475Z,4.60
2023-04-06T23:05:14.558Z,4.50
2023-04-06T23:07:41.666Z,4.60
2023-04-06T23:10:09.292Z,4.50
2023-04-06T23:12:36.380Z,4.50
2023-04-06T23:15:03.427Z,4.60
2023-04-06T23:17:30.708Z,4.60
2023-04-06T23:19:57.705Z,4.60
2023-04-06T23:22:24.804Z,4.60
2023-04-06T23:24:51.818Z,4.70
2023-04-06T23:27:18.764Z,4.70
2023-04-06T23:29:45.820Z,4.90
2023-04-06T23:32:12.871Z,4.80
2023-04-06T23:34:39.966Z,4.80
2023-04-06T23:37:07.038Z,4.70
2023-04-06T23:39:35.548Z,4.70
2023-04-06T23:42:02.581Z,4.80
2023-04-06T23:44:30.976Z,4.70
2023-04-06T23:46:58.132Z,4.80
2023-04-06T23:49:25.093Z,4.80
2023-04-06T23:51:52.214Z,4.70
2023-04-06T23:54:19.201Z,4.70
2023-04-06T23:56:46.464Z,4.80
2023-04-06T23:59:13.513Z,4.80
